createdAt,value
2022-10-13T00:01:39.764Z,0.22
2022-10-13T00:04:08.637Z,0.80
2022-10-13T00:06:38.252Z,0.30
2022-10-13T00:09:07.560Z,0.38
2022-10-13T00:11:38.637Z,0.75
2022-10-13T00:14:09.322Z,1.52
2022-10-13T00:16:38.264Z,0.40
2022-10-13T00:19:14.882Z,0.57
2022-10-13T00:21:44.009Z,0.55
2022-10-13T00:24:13.226Z,0.50
2022-10-13T00:26:44.537Z,0.52
2022-10-13T00:29:15.470Z,0.60
2022-10-13T00:31:44.536Z,0.68
2022-10-13T00:34:14.061Z,0.57
2022-10-13T00:36:42.879Z,0.30
2022-10-13T00:39:11.872Z,0.50
2022-10-13T00:41:43.828Z,0.95
2022-10-13T00:45:09.785Z,0.68
2022-10-13T00:47:46.198Z,0.50
2022-10-13T00:50:21.063Z,0.45
2022-10-13T00:52:53.936Z,1.23
2022-10-13T00:55:29.177Z,0.28
2022-10-13T00:58:05.201Z,0.30
2022-10-13T01:00:35.933Z,0.88
2022-10-13T01:03:06.645Z,1.33
2022-10-13T01:05:36.182Z,0.77
2022-10-13T01:08:06.628Z,0.63
2022-10-13T01:10:55.811Z,1.02
2022-10-13T01:13:36.060Z,0.63
2022-10-13T01:16:16.360Z,0.90
2022-10-13T01:18:56.626Z,0.30
2022-10-13T01:21:53.949Z,0.57
2022-10-13T01:24:49.750Z,0.40
2022-10-13T01:28:00.635Z,0.70
2022-10-13T01:30:48.002Z,0.60
2022-10-13T01:33:37.190Z,0.60
2022-10-13T01:36:28.337Z,0.50
2022-10-13T01:39:21.287Z,1.00
2022-10-13T01:42:12.052Z,0.60
2022-10-13T01:44:52.560Z,0.47
2022-10-13T01:47:27.271Z,0.80
2022-10-13T01:50:01.372Z,0.43
2022-10-13T01:52:43.396Z,1.08
2022-10-13T01:55:17.826Z,0.45
2022-10-13T01:57:47.968Z,0.60
2022-10-13T02:00:21.601Z,1.42
2022-10-13T02:03:08.344Z,0.75
2022-10-13T02:05:49.887Z,1.02
2022-10-13T02:08:33.679Z,0.50
2022-10-13T02:11:16.037Z,1.17
2022-10-13T02:13:59.924Z,0.90
2022-10-13T02:16:35.939Z,0.30
2022-10-13T02:19:10.051Z,0.65
2022-10-13T02:21:43.754Z,0.52
2022-10-13T02:24:14.026Z,0.80
2022-10-13T02:26:45.676Z,0.85
2022-10-13T02:29:17.617Z,0.70
2022-10-13T02:31:48.188Z,0.85
2022-10-13T02:34:18.784Z,1.35
2022-10-13T02:36:48.360Z,0.68
2022-10-13T02:39:19.177Z,0.80
2022-10-13T02:41:48.006Z,1.02
2022-10-13T02:44:17.750Z,0.70
2022-10-13T02:46:46.643Z,0.90
2022-10-13T02:49:16.008Z,1.20
2022-10-13T02:51:46.746Z,1.30
2022-10-13T02:54:15.925Z,0.90
2022-10-13T02:56:45.451Z,0.95
2022-10-13T02:59:14.517Z,0.50
2022-10-13T03:01:45.509Z,0.90
2022-10-13T03:04:14.729Z,1.02
2022-10-13T03:06:44.082Z,0.75
2022-10-13T03:09:14.436Z,0.93
2022-10-13T03:11:43.699Z,1.25
2022-10-13T03:14:16.122Z,0.60
2022-10-13T03:16:46.068Z,0.70
2022-10-13T03:19:15.346Z,1.25
2022-10-13T03:21:44.228Z,0.85
2022-10-13T03:24:14.638Z,1.08
2022-10-13T03:26:43.895Z,0.90
2022-10-13T03:29:15.131Z,1.15
2022-10-13T03:31:47.036Z,1.02
2022-10-13T03:34:24.603Z,1.00
2022-10-13T03:36:54.008Z,0.60
2022-10-13T03:39:24.437Z,0.73
2022-10-13T03:41:53.684Z,0.75
2022-10-13T03:44:25.824Z,0.40
2022-10-13T03:46:54.932Z,1.17
2022-10-13T03:49:25.610Z,0.80
2022-10-13T03:51:55.596Z,1.58
2022-10-13T03:54:27.736Z,0.57
2022-10-13T03:56:56.933Z,0.68
2022-10-13T03:59:25.898Z,1.23
2022-10-13T04:01:55.907Z,0.90
2022-10-13T04:04:27.761Z,0.95
2022-10-13T04:06:56.835Z,0.57
2022-10-13T04:09:28.865Z,0.57
2022-10-13T04:12:00.191Z,0.88
2022-10-13T04:14:32.475Z,1.58
2022-10-13T04:17:01.949Z,0.57
2022-10-13T04:19:31.068Z,1.10
2022-10-13T04:22:00.184Z,1.00
2022-10-13T04:24:32.272Z,0.70
2022-10-13T04:27:03.778Z,1.10
2022-10-13T04:29:33.014Z,0.55
2022-10-13T04:32:04.359Z,0.40
2022-10-13T04:34:33.552Z,1.40
2022-10-13T04:37:03.006Z,0.82
2022-10-13T04:39:33.875Z,0.20
2022-10-13T04:42:03.203Z,0.98
2022-10-13T04:44:32.682Z,1.27
2022-10-13T04:47:03.936Z,1.73
2022-10-13T04:49:32.834Z,0.80
2022-10-13T04:52:01.775Z,1.23
2022-10-13T04:54:32.570Z,1.00
2022-10-13T04:57:01.558Z,0.55
2022-10-13T04:59:30.595Z,1.38
2022-10-13T05:01:59.379Z,1.23
2022-10-13T05:04:28.297Z,1.45
2022-10-13T05:07:17.135Z,0.77
2022-10-13T05:09:47.876Z,1.05
2022-10-13T05:12:18.710Z,0.80
2022-10-13T05:14:48.796Z,1.23
2022-10-13T05:17:20.937Z,1.20
2022-10-13T05:19:51.413Z,0.70
2022-10-13T05:22:23.505Z,0.77
2022-10-13T05:24:54.354Z,1.27
2022-10-13T05:27:23.456Z,1.13
2022-10-13T05:29:52.480Z,1.15
2022-10-13T05:32:21.775Z,1.08
2022-10-13T05:34:51.179Z,1.23
2022-10-13T05:37:22.610Z,0.98
2022-10-13T05:39:52.787Z,0.88
2022-10-13T05:42:22.673Z,1.42
2022-10-13T05:44:52.391Z,1.30
2022-10-13T05:47:23.241Z,0.77
2022-10-13T05:49:52.980Z,1.90
2022-10-13T05:52:22.901Z,0.75
2022-10-13T05:54:58.280Z,0.60
2022-10-13T05:57:33.363Z,1.70
2022-10-13T06:00:07.520Z,0.35
2022-10-13T06:02:45.196Z,1.10
2022-10-13T06:05:21.511Z,1.27
2022-10-13T06:07:52.406Z,1.52
2022-10-13T06:10:23.532Z,0.63
2022-10-13T06:12:52.660Z,0.95
2022-10-13T06:15:27.078Z,1.45
2022-10-13T06:17:56.864Z,1.23
2022-10-13T06:20:27.649Z,1.23
2022-10-13T06:22:56.934Z,1.75
2022-10-13T06:25:27.508Z,0.98
2022-10-13T06:27:57.374Z,2.10
2022-10-13T06:30:26.442Z,1.55
2022-10-13T06:32:56.274Z,1.00
2022-10-13T06:35:25.570Z,1.13
2022-10-13T06:37:55.251Z,1.42
2022-10-13T06:40:24.210Z,1.13
2022-10-13T06:42:54.996Z,1.30
2022-10-13T06:45:25.410Z,1.92
2022-10-13T06:47:55.922Z,1.48
2022-10-13T06:50:25.607Z,1.17
2022-10-13T06:52:56.917Z,1.50
2022-10-13T06:55:26.005Z,1.75
2022-10-13T06:57:56.241Z,1.30
2022-10-13T07:00:26.068Z,1.38
2022-10-13T07:02:55.131Z,1.10
2022-10-13T07:05:24.135Z,1.60
2022-10-13T07:07:56.711Z,1.50
2022-10-13T07:10:25.778Z,1.65
2022-10-13T07:12:56.579Z,0.90
2022-10-13T07:15:32.705Z,1.05
2022-10-13T07:18:06.043Z,3.97
2022-10-13T07:20:35.405Z,1.30
2022-10-13T07:23:04.837Z,1.30
2022-10-13T07:25:34.462Z,2.00
2022-10-13T07:28:05.139Z,2.55
2022-10-13T07:30:33.943Z,1.98
2022-10-13T07:33:03.067Z,2.70
2022-10-13T07:35:32.093Z,2.42
2022-10-13T07:38:00.888Z,2.15
2022-10-13T07:40:29.797Z,2.20
2022-10-13T07:42:59.190Z,1.70
2022-10-13T07:45:30.239Z,2.42
2022-10-13T07:47:59.178Z,3.25
2022-10-13T07:50:31.319Z,1.90
2022-10-13T07:55:29.049Z,1.67
2022-10-13T07:57:58.202Z,2.42
2022-10-13T08:00:28.543Z,2.28
2022-10-13T08:02:57.543Z,2.78
2022-10-13T08:05:26.566Z,3.13
2022-10-13T08:07:58.281Z,2.78
2022-10-13T08:10:29.976Z,2.58
2022-10-13T08:12:59.286Z,2.22
2022-10-13T08:15:29.957Z,2.22
2022-10-13T08:17:59.186Z,2.00
2022-10-13T08:20:40.897Z,1.98
2022-10-13T08:25:44.688Z,2.22
2022-10-13T08:28:20.620Z,2.08
2022-10-13T08:30:52.504Z,1.75
2022-10-13T08:33:21.984Z,2.30
2022-10-13T08:35:51.518Z,2.63
2022-10-13T08:38:22.923Z,1.58
2022-10-13T08:40:53.593Z,2.10
2022-10-13T08:43:26.186Z,2.67
2022-10-13T08:46:04.013Z,1.40
2022-10-13T08:48:37.276Z,1.77
2022-10-13T08:51:09.571Z,2.17
2022-10-13T08:53:43.225Z,1.75
2022-10-13T08:56:18.941Z,3.20
2022-10-13T08:58:50.330Z,2.55
2022-10-13T09:01:26.463Z,2.08
2022-10-13T09:04:01.930Z,2.90
2022-10-13T09:06:38.365Z,2.55
2022-10-13T09:09:10.901Z,2.60
2022-10-13T09:11:42.332Z,2.30
2022-10-13T09:14:14.333Z,2.47
2022-10-13T09:16:47.487Z,2.00
2022-10-13T09:19:26.675Z,1.67
2022-10-13T09:21:59.320Z,1.98
2022-10-13T09:24:29.958Z,2.50
2022-10-13T09:27:13.528Z,2.08
2022-10-13T09:29:44.585Z,2.10
2022-10-13T09:32:21.857Z,3.33
2022-10-13T09:34:55.891Z,1.95
2022-10-13T09:37:28.338Z,2.88
2022-10-13T09:40:13.422Z,2.17
2022-10-13T09:42:42.614Z,2.30
2022-10-13T09:45:18.859Z,2.67
2022-10-13T09:47:58.451Z,2.35
2022-10-13T09:50:30.843Z,2.80
2022-10-13T09:53:27.343Z,2.72
2022-10-13T09:56:18.520Z,2.67
2022-10-13T09:58:56.681Z,3.20
2022-10-13T10:01:31.894Z,2.47
2022-10-13T10:04:07.706Z,3.17
2022-10-13T10:06:39.428Z,2.53
2022-10-13T10:09:34.060Z,2.90
2022-10-13T10:12:05.484Z,3.40
2022-10-13T10:14:37.962Z,4.18
2022-10-13T10:17:21.907Z,3.38
2022-10-13T10:20:12.648Z,3.55
2022-10-13T10:22:54.406Z,2.95
2022-10-13T10:25:39.805Z,3.70
2022-10-13T10:28:54.598Z,3.72
2022-10-13T10:31:45.207Z,2.78
2022-10-13T10:34:37.638Z,3.85
2022-10-13T10:37:29.673Z,2.88
2022-10-13T10:40:17.352Z,4.35
2022-10-13T10:43:16.602Z,3.25
2022-10-13T10:45:49.384Z,2.88
2022-10-13T10:48:24.676Z,3.28
2022-10-13T10:50:55.634Z,4.10
2022-10-13T10:53:38.702Z,2.90
2022-10-13T10:56:21.296Z,3.78
2022-10-13T10:59:06.899Z,3.83
2022-10-13T11:01:47.698Z,2.78
2022-10-13T11:04:42.504Z,3.15
2022-10-13T11:07:36.540Z,3.25
2022-10-13T11:10:23.597Z,2.75
2022-10-13T11:13:22.642Z,2.92
2022-10-13T11:15:51.706Z,2.75
2022-10-13T11:19:06.639Z,3.40
2022-10-13T11:22:17.182Z,2.60
2022-10-13T11:24:57.206Z,2.72
2022-10-13T11:27:44.708Z,2.85
2022-10-13T11:30:50.272Z,3.13
2022-10-13T11:33:58.977Z,4.00
2022-10-13T11:36:57.664Z,2.38
2022-10-13T11:40:05.362Z,2.40
2022-10-13T11:43:19.345Z,2.95
2022-10-13T11:46:07.875Z,3.22
2022-10-13T11:49:33.145Z,2.42
2022-10-13T11:52:48.870Z,3.35
2022-10-13T11:55:25.028Z,2.63
2022-10-13T11:58:11.360Z,2.97
2022-10-13T12:00:50.833Z,3.50
2022-10-13T12:03:29.055Z,2.10
2022-10-13T12:06:03.755Z,3.25
2022-10-13T12:08:37.406Z,3.15
2022-10-13T12:11:10.352Z,3.80
2022-10-13T12:13:41.055Z,2.92
2022-10-13T12:16:10.440Z,2.67
2022-10-13T12:18:41.985Z,3.75
2022-10-13T12:21:15.060Z,2.90
2022-10-13T12:23:47.508Z,4.13
2022-10-13T12:26:20.031Z,3.20
2022-10-13T12:28:53.999Z,3.80
2022-10-13T12:31:26.835Z,3.85
2022-10-13T12:33:57.640Z,2.40
2022-10-13T12:36:32.174Z,2.50
2022-10-13T12:39:05.804Z,3.47
2022-10-13T12:41:38.688Z,3.67
2022-10-13T12:44:16.367Z,3.35
2022-10-13T12:46:47.697Z,3.42
2022-10-13T12:52:00.252Z,2.90
2022-10-13T12:54:34.105Z,3.90
2022-10-13T12:57:07.987Z,3.20
2022-10-13T12:59:44.625Z,3.38
2022-10-13T13:02:26.120Z,2.78
2022-10-13T13:04:55.579Z,3.53
2022-10-13T13:07:33.791Z,3.58
2022-10-13T13:10:18.832Z,2.35
2022-10-13T13:12:50.707Z,3.08
2022-10-13T13:15:35.224Z,3.17
2022-10-13T13:18:36.316Z,2.63
2022-10-13T13:21:08.509Z,2.85
2022-10-13T13:23:37.513Z,2.53
2022-10-13T13:26:15.547Z,2.72
2022-10-13T13:31:23.647Z,3.92
2022-10-13T13:33:53.108Z,3.53
2022-10-13T13:36:24.956Z,2.72
2022-10-13T13:38:55.359Z,3.28
2022-10-13T13:41:28.099Z,2.22
2022-10-13T13:43:57.176Z,2.58
2022-10-13T13:46:29.459Z,3.13
2022-10-13T13:48:58.242Z,2.63
2022-10-13T13:51:26.916Z,2.75
2022-10-13T13:53:56.776Z,2.40
2022-10-13T13:56:26.783Z,2.75
2022-10-13T13:58:55.741Z,2.88
2022-10-13T14:01:26.433Z,3.55
2022-10-13T14:03:56.850Z,2.40
2022-10-13T14:06:25.756Z,2.30
2022-10-13T14:08:54.987Z,3.20
2022-10-13T14:11:23.739Z,3.42
2022-10-13T14:13:52.772Z,3.17
2022-10-13T14:16:21.673Z,3.40
2022-10-13T14:18:53.111Z,4.38
2022-10-13T14:21:23.164Z,2.67
2022-10-13T14:23:52.081Z,3.22
2022-10-13T14:26:20.772Z,3.03
2022-10-13T14:28:49.559Z,2.90
2022-10-13T14:31:19.543Z,3.13
2022-10-13T14:33:54.009Z,2.92
2022-10-13T14:36:25.258Z,3.30
2022-10-13T14:38:55.086Z,3.00
2022-10-13T14:41:24.114Z,3.50
2022-10-13T14:43:56.053Z,3.00
2022-10-13T14:46:25.784Z,2.55
2022-10-13T14:48:58.992Z,2.20
2022-10-13T14:51:29.630Z,2.70
2022-10-13T14:53:58.445Z,2.80
2022-10-13T14:56:30.329Z,3.25
2022-10-13T14:59:02.654Z,2.58
2022-10-13T15:01:33.495Z,2.05
2022-10-13T15:04:02.974Z,2.63
2022-10-13T15:06:34.448Z,3.08
2022-10-13T15:09:03.188Z,3.00
2022-10-13T15:11:32.380Z,2.20
2022-10-13T15:14:02.081Z,2.90
2022-10-13T15:16:33.649Z,2.47
2022-10-13T15:19:04.545Z,3.35
2022-10-13T15:21:35.781Z,2.40
2022-10-13T15:24:05.443Z,1.83
2022-10-13T15:26:35.055Z,2.45
2022-10-13T15:29:05.488Z,3.00
2022-10-13T15:31:34.223Z,2.83
2022-10-13T15:34:03.372Z,1.90
2022-10-13T15:36:33.897Z,2.42
2022-10-13T15:39:03.091Z,2.50
2022-10-13T15:41:34.409Z,2.67
2022-10-13T15:44:03.535Z,2.88
2022-10-13T15:46:33.343Z,2.70
2022-10-13T15:49:04.729Z,2.40
2022-10-13T15:51:35.390Z,4.22
2022-10-13T15:54:42.350Z,3.35
2022-10-13T15:57:11.181Z,4.07
2022-10-13T15:59:43.694Z,3.05
2022-10-13T16:02:21.754Z,2.97
2022-10-13T16:04:51.455Z,2.42
2022-10-13T16:07:25.298Z,3.42
2022-10-13T16:09:54.251Z,2.83
2022-10-13T16:12:25.654Z,3.60
2022-10-13T16:14:54.717Z,3.30
2022-10-13T16:17:25.434Z,2.78
2022-10-13T16:19:54.916Z,3.40
2022-10-13T16:22:26.202Z,3.08
2022-10-13T16:24:55.153Z,2.97
2022-10-13T16:27:25.041Z,3.13
2022-10-13T16:29:57.300Z,1.98
2022-10-13T16:32:38.871Z,1.90
2022-10-13T16:35:09.812Z,3.03
2022-10-13T16:37:40.491Z,3.53
2022-10-13T16:40:11.710Z,3.35
2022-10-13T16:42:42.132Z,3.05
2022-10-13T16:45:14.246Z,2.88
2022-10-13T16:50:12.619Z,3.20
2022-10-13T16:52:43.807Z,2.25
2022-10-13T16:55:12.940Z,2.92
2022-10-13T16:57:41.729Z,2.97
2022-10-13T17:00:15.420Z,2.55
2022-10-13T17:02:44.766Z,3.55
2022-10-13T17:05:14.564Z,3.35
2022-10-13T17:07:45.695Z,2.70
2022-10-13T17:10:15.371Z,2.67
2022-10-13T17:12:48.917Z,2.20
2022-10-13T17:15:18.858Z,2.72
2022-10-13T17:17:50.690Z,2.60
2022-10-13T17:20:19.888Z,3.25
2022-10-13T17:22:50.102Z,2.63
2022-10-13T17:25:19.811Z,3.08
2022-10-13T17:27:48.917Z,3.50
2022-10-13T17:30:18.721Z,2.00
2022-10-13T17:32:48.057Z,2.90
2022-10-13T17:35:18.156Z,2.83
2022-10-13T17:37:52.120Z,2.05
2022-10-13T17:40:22.273Z,2.50
2022-10-13T17:42:51.506Z,2.47
2022-10-13T17:45:20.971Z,2.63
2022-10-13T17:47:53.675Z,2.75
2022-10-13T17:50:23.451Z,3.63
2022-10-13T17:52:55.206Z,2.80
2022-10-13T17:55:24.475Z,3.25
2022-10-13T17:57:53.329Z,1.90
2022-10-13T18:00:24.083Z,2.38
2022-10-13T18:02:52.886Z,2.38
2022-10-13T18:05:22.287Z,1.58
2022-10-13T18:07:58.404Z,2.67
2022-10-13T18:10:27.776Z,2.67
2022-10-13T18:12:57.035Z,2.83
2022-10-13T18:15:26.257Z,2.30
2022-10-13T18:17:55.736Z,2.22
2022-10-13T18:20:26.252Z,2.65
2022-10-13T18:22:56.618Z,2.65
2022-10-13T18:25:25.496Z,2.70
2022-10-13T18:27:54.471Z,1.85
2022-10-13T18:30:23.956Z,1.70
2022-10-13T18:32:56.117Z,2.42
2022-10-13T18:38:08.481Z,2.92
2022-10-13T18:40:37.977Z,2.47
2022-10-13T18:43:22.821Z,2.33
2022-10-13T18:45:51.546Z,2.63
2022-10-13T18:48:20.802Z,2.90
2022-10-13T18:50:49.915Z,3.42
2022-10-13T18:53:45.743Z,3.00
2022-10-13T18:56:18.012Z,2.53
2022-10-13T18:58:48.321Z,2.15
2022-10-13T19:01:22.002Z,3.53
2022-10-13T19:03:55.705Z,3.42
2022-10-13T19:06:34.772Z,2.65
2022-10-13T19:09:08.905Z,2.72
2022-10-13T19:11:39.431Z,2.35
2022-10-13T19:14:14.347Z,2.50
2022-10-13T19:16:45.791Z,2.58
2022-10-13T19:19:15.580Z,3.15
2022-10-13T19:21:45.340Z,2.47
2022-10-13T19:24:19.253Z,2.92
2022-10-13T19:26:47.988Z,2.00
2022-10-13T19:29:17.423Z,2.40
2022-10-13T19:31:47.711Z,2.53
2022-10-13T19:34:17.104Z,2.55
2022-10-13T19:36:51.539Z,3.15
2022-10-13T19:39:25.859Z,2.13
2022-10-13T19:41:58.615Z,2.55
2022-10-13T19:44:29.170Z,2.50
2022-10-13T19:46:58.295Z,2.83
2022-10-13T19:49:27.678Z,2.28
2022-10-13T19:51:57.205Z,1.75
2022-10-13T19:54:32.916Z,2.55
2022-10-13T19:57:03.147Z,2.20
2022-10-13T19:59:38.332Z,2.85
2022-10-13T20:02:07.610Z,2.60
2022-10-13T20:04:36.908Z,2.22
2022-10-13T20:07:08.871Z,2.75
2022-10-13T20:09:39.380Z,3.08
2022-10-13T20:12:09.136Z,2.03
2022-10-13T20:14:38.590Z,2.58
2022-10-13T20:17:07.832Z,1.77
2022-10-13T20:19:38.464Z,3.25
2022-10-13T20:22:07.918Z,2.38
2022-10-13T20:24:36.715Z,2.22
2022-10-13T20:27:09.355Z,3.25
2022-10-13T20:29:38.764Z,2.53
2022-10-13T20:32:08.210Z,2.58
2022-10-13T20:34:42.509Z,2.30
2022-10-13T20:37:12.446Z,3.22
2022-10-13T20:39:41.811Z,2.72
2022-10-13T20:42:12.734Z,3.00
2022-10-13T20:44:45.032Z,3.08
2022-10-13T20:49:44.586Z,2.30
2022-10-13T20:52:16.261Z,1.98
2022-10-13T20:54:45.855Z,2.13
2022-10-13T20:57:16.392Z,2.47
2022-10-13T20:59:45.192Z,2.60
2022-10-13T21:02:17.266Z,2.65
2022-10-13T21:07:14.851Z,1.95
2022-10-13T21:09:44.662Z,3.30
2022-10-13T21:12:13.571Z,3.05
2022-10-13T21:14:44.663Z,1.95
2022-10-13T21:17:13.541Z,1.80
2022-10-13T21:19:45.521Z,2.50
2022-10-13T21:22:14.491Z,2.65
2022-10-13T21:24:45.038Z,2.67
2022-10-13T21:27:14.142Z,1.83
2022-10-13T21:29:45.289Z,2.70
2022-10-13T21:32:14.266Z,2.30
2022-10-13T21:34:48.047Z,3.00
2022-10-13T21:37:17.286Z,2.83
2022-10-13T21:39:48.420Z,3.03
2022-10-13T21:42:17.998Z,2.75
2022-10-13T21:44:48.331Z,2.20
2022-10-13T21:47:17.067Z,2.17
2022-10-13T21:49:45.818Z,2.85
2022-10-13T21:52:14.956Z,3.70
2022-10-13T21:54:43.834Z,2.30
2022-10-13T21:57:13.254Z,2.75
2022-10-13T21:59:42.226Z,2.90
2022-10-13T22:02:12.816Z,2.15
2022-10-13T22:04:42.550Z,1.98
2022-10-13T22:07:11.669Z,3.05
2022-10-13T22:09:40.580Z,2.42
2022-10-13T22:12:10.455Z,2.55
2022-10-13T22:14:39.145Z,3.67
2022-10-13T22:17:08.931Z,2.17
2022-10-13T22:19:39.397Z,2.97
2022-10-13T22:22:08.584Z,2.03
2022-10-13T22:24:37.490Z,3.08
2022-10-13T22:27:06.224Z,2.72
2022-10-13T22:29:35.433Z,2.45
2022-10-13T22:32:04.068Z,2.03
2022-10-13T22:34:33.055Z,2.90
2022-10-13T22:37:05.262Z,2.83
2022-10-13T22:39:34.789Z,2.35
2022-10-13T22:42:04.125Z,2.22
2022-10-13T22:44:35.234Z,3.03
2022-10-13T22:47:05.377Z,2.47
2022-10-13T22:49:34.387Z,2.60
2022-10-13T22:52:04.841Z,3.03
2022-10-13T22:54:35.025Z,2.92
2022-10-13T22:57:04.326Z,2.45
2022-10-13T22:59:33.398Z,3.15
2022-10-13T23:02:02.552Z,2.60
2022-10-13T23:04:31.672Z,3.15
2022-10-13T23:07:00.492Z,3.10
2022-10-13T23:09:32.276Z,2.75
2022-10-13T23:12:04.396Z,2.03
2022-10-13T23:14:33.274Z,3.42
2022-10-13T23:17:03.102Z,2.80
2022-10-13T23:19:31.992Z,3.17
2022-10-13T23:22:00.995Z,3.55
2022-10-13T23:24:34.780Z,2.40
2022-10-13T23:27:06.908Z,2.63
2022-10-13T23:29:36.550Z,2.28
2022-10-13T23:32:09.786Z,3.75
2022-10-13T23:34:42.687Z,2.90
2022-10-13T23:37:12.289Z,2.60
2022-10-13T23:39:42.795Z,2.83
2022-10-13T23:42:12.165Z,2.88
2022-10-13T23:44:42.119Z,3.42
2022-10-13T23:47:11.311Z,3.55
2022-10-13T23:49:47.404Z,3.63
2022-10-13T23:52:16.608Z,3.13
2022-10-13T23:54:47.298Z,3.00
2022-10-13T23:57:16.774Z,2.60
2022-10-13T23:59:47.406Z,3.88
